Terminal Aerodrome Forecast
Issued by NWS Louisville, KY

Home | Current Version | Previous Version | Text Only | Print | Product List | Glossary On
Versions: 1 2 3 4 5 6 7 8 9 10 11 12 13 14
101
FTUS43 KLMK 271731
TAFSDF
TAF
KSDF 271731Z 2718/2824 20011KT P6SM SCT040 BKN250
     FM280000 16007KT P6SM SCT120 BKN250
     FM281500 21012KT P6SM VCSH SCT060 BKN100=

USA.gov is the U.S. government's official web portal to all federal, state and local government web resources and services.